sensor_id;sensor_type;location;lat;lon;timestamp;temperature;humidity
49224;DHT22;35050;51.316;5.994;2023-04-25T00:00:26;8.00;99.90
49224;DHT22;35050;51.316;5.994;2023-04-25T00:02:52;8.00;99.90
49224;DHT22;35050;51.316;5.994;2023-04-25T00:05:17;8.00;99.90
49224;DHT22;35050;51.316;5.994;2023-04-25T00:07:45;8.00;99.90
49224;DHT22;35050;51.316;5.994;2023-04-25T00:10:11;8.10;99.90
49224;DHT22;35050;51.316;5.994;2023-04-25T00:12:37;8.10;99.90
49224;DHT22;35050;51.316;5.994;2023-04-25T00:15:04;8.00;99.90
49224;DHT22;35050;51.316;5.994;2023-04-25T00:17:30;8.10;99.90
49224;DHT22;35050;51.316;5.994;2023-04-25T00:19:56;8.00;99.90
49224;DHT22;35050;51.316;5.994;2023-04-25T00:22:23;8.10;99.90
49224;DHT22;35050;51.316;5.994;2023-04-25T00:24:49;8.10;99.90
49224;DHT22;35050;51.316;5.994;2023-04-25T00:27:15;8.20;99.90
49224;DHT22;35050;51.316;5.994;2023-04-25T00:29:41;8.20;99.90
49224;DHT22;35050;51.316;5.994;2023-04-25T00:32:07;8.10;99.90
49224;DHT22;35050;51.316;5.994;2023-04-25T00:34:32;8.10;99.90
49224;DHT22;35050;51.316;5.994;2023-04-25T00:36:58;8.10;99.90
49224;DHT22;35050;51.316;5.994;2023-04-25T00:39:27;8.20;99.90
49224;DHT22;35050;51.316;5.994;2023-04-25T00:41:54;8.20;99.90
49224;DHT22;35050;51.316;5.994;2023-04-25T00:44:20;8.20;99.90
49224;DHT22;35050;51.316;5.994;2023-04-25T00:46:47;8.20;99.90
49224;DHT22;35050;51.316;5.994;2023-04-25T00:49:13;8.20;99.90
49224;DHT22;35050;51.316;5.994;2023-04-25T00:51:41;8.10;99.90
49224;DHT22;35050;51.316;5.994;2023-04-25T00:54:07;8.30;99.90
49224;DHT22;35050;51.316;5.994;2023-04-25T00:56:33;8.10;99.90
49224;DHT22;35050;51.316;5.994;2023-04-25T00:58:59;8.20;99.90
49224;DHT22;35050;51.316;5.994;2023-04-25T01:01:25;8.30;99.90
49224;DHT22;35050;51.316;5.994;2023-04-25T01:03:51;8.20;99.90
49224;DHT22;35050;51.316;5.994;2023-04-25T01:06:17;8.10;99.90
49224;DHT22;35050;51.316;5.994;2023-04-25T01:08:43;8.10;99.90
49224;DHT22;35050;51.316;5.994;2023-04-25T01:11:09;8.10;99.90
49224;DHT22;35050;51.316;5.994;2023-04-25T01:13:35;8.20;99.90
49224;DHT22;35050;51.316;5.994;2023-04-25T01:16:02;8.10;99.90
49224;DHT22;35050;51.316;5.994;2023-04-25T01:18:28;8.20;99.90
49224;DHT22;35050;51.316;5.994;2023-04-25T01:20:54;8.10;99.90
49224;DHT22;35050;51.316;5.994;2023-04-25T01:23:21;8.00;99.90
49224;DHT22;35050;51.316;5.994;2023-04-25T01:25:48;8.10;99.90
49224;DHT22;35050;51.316;5.994;2023-04-25T01:28:14;8.00;99.90
49224;DHT22;35050;51.316;5.994;2023-04-25T01:30:40;8.10;99.90
49224;DHT22;35050;51.316;5.994;2023-04-25T01:33:08;8.00;99.90
49224;DHT22;35050;51.316;5.994;2023-04-25T01:35:34;8.00;99.90
49224;DHT22;35050;51.316;5.994;2023-04-25T01:38:00;7.90;99.90
49224;DHT22;35050;51.316;5.994;2023-04-25T01:40:26;7.90;99.90
49224;DHT22;35050;51.316;5.994;2023-04-25T01:42:52;7.90;99.90
49224;DHT22;35050;51.316;5.994;2023-04-25T01:45:18;7.80;99.90
49224;DHT22;35050;51.316;5.994;2023-04-25T01:47:44;7.90;99.90
49224;DHT22;35050;51.316;5.994;2023-04-25T01:50:14;7.90;99.90
49224;DHT22;35050;51.316;5.994;2023-04-25T01:52:41;7.80;99.90
49224;DHT22;35050;51.316;5.994;2023-04-25T01:55:07;7.90;99.90
49224;DHT22;35050;51.316;5.994;2023-04-25T01:57:32;7.80;99.90
49224;DHT22;35050;51.316;5.994;2023-04-25T02:00:01;7.80;99.90
49224;DHT22;35050;51.316;5.994;2023-04-25T02:02:27;7.70;99.90
49224;DHT22;35050;51.316;5.994;2023-04-25T02:04:53;7.70;99.90
49224;DHT22;35050;51.316;5.994;2023-04-25T02:07:20;7.80;99.90
49224;DHT22;35050;51.316;5.994;2023-04-25T02:09:46;7.70;99.90
49224;DHT22;35050;51.316;5.994;2023-04-25T02:12:12;7.60;99.90
49224;DHT22;35050;51.316;5.994;2023-04-25T02:14:37;7.70;99.90
49224;DHT22;35050;51.316;5.994;2023-04-25T02:17:03;7.70;99.90
49224;DHT22;35050;51.316;5.994;2023-04-25T02:19:29;7.70;99.90
49224;DHT22;35050;51.316;5.994;2023-04-25T02:21:55;7.60;99.90
49224;DHT22;35050;51.316;5.994;2023-04-25T02:24:22;7.60;99.90
49224;DHT22;35050;51.316;5.994;2023-04-25T02:26:48;7.60;99.90
49224;DHT22;35050;51.316;5.994;2023-04-25T02:29:15;7.60;99.90
49224;DHT22;35050;51.316;5.994;2023-04-25T02:31:40;7.60;99.90
49224;DHT22;35050;51.316;5.994;2023-04-25T02:34:06;7.60;99.90
49224;DHT22;35050;51.316;5.994;2023-04-25T02:36:32;7.50;99.90
49224;DHT22;35050;51.316;5.994;2023-04-25T02:39:00;7.40;99.90
49224;DHT22;35050;51.316;5.994;2023-04-25T02:41:26;7.50;99.90
49224;DHT22;35050;51.316;5.994;2023-04-25T02:43:52;7.30;99.90
49224;DHT22;35050;51.316;5.994;2023-04-25T02:46:17;7.30;99.90
49224;DHT22;35050;51.316;5.994;2023-04-25T02:48:43;7.40;99.90
49224;DHT22;35050;51.316;5.994;2023-04-25T02:51:09;7.50;99.90
49224;DHT22;35050;51.316;5.994;2023-04-25T02:53:35;7.50;99.90
49224;DHT22;35050;51.316;5.994;2023-04-25T02:56:01;7.50;99.90
49224;DHT22;35050;51.316;5.994;2023-04-25T02:58:27;7.60;99.90
49224;DHT22;35050;51.316;5.994;2023-04-25T03:00:53;7.50;99.90
49224;DHT22;35050;51.316;5.994;2023-04-25T03:03:18;7.50;99.90
49224;DHT22;35050;51.316;5.994;2023-04-25T03:05:50;7.50;99.90
49224;DHT22;35050;51.316;5.994;2023-04-25T03:08:16;7.50;99.90
49224;DHT22;35050;51.316;5.994;2023-04-25T03:10:43;7.50;99.90
49224;DHT22;35050;51.316;5.994;2023-04-25T03:13:08;7.50;99.90
49224;DHT22;35050;51.316;5.994;2023-04-25T03:15:35;7.50;99.90
49224;DHT22;35050;51.316;5.994;2023-04-25T03:18:01;7.50;99.90
49224;DHT22;35050;51.316;5.994;2023-04-25T03:20:26;7.40;99.90
49224;DHT22;35050;51.316;5.994;2023-04-25T03:22:52;7.20;99.90
49224;DHT22;35050;51.316;5.994;2023-04-25T03:25:18;7.30;99.90
49224;DHT22;35050;51.316;5.994;2023-04-25T03:27:43;7.30;99.90
49224;DHT22;35050;51.316;5.994;2023-04-25T03:30:09;7.30;99.90
49224;DHT22;35050;51.316;5.994;2023-04-25T03:32:35;7.30;99.90
49224;DHT22;35050;51.316;5.994;2023-04-25T03:35:01;7.30;99.90
49224;DHT22;35050;51.316;5.994;2023-04-25T03:37:26;7.20;99.90
49224;DHT22;35050;51.316;5.994;2023-04-25T03:39:52;7.20;99.90
49224;DHT22;35050;51.316;5.994;2023-04-25T03:42:18;7.10;99.90
49224;DHT22;35050;51.316;5.994;2023-04-25T03:44:43;7.10;99.90
49224;DHT22;35050;51.316;5.994;2023-04-25T03:47:09;7.00;99.90
49224;DHT22;35050;51.316;5.994;2023-04-25T03:49:35;7.00;99.90
49224;DHT22;35050;51.316;5.994;2023-04-25T03:52:02;7.10;99.90
49224;DHT22;35050;51.316;5.994;2023-04-25T03:54:28;7.00;99.90
49224;DHT22;35050;51.316;5.994;2023-04-25T03:56:53;7.10;99.90
49224;DHT22;35050;51.316;5.994;2023-04-25T03:59:19;7.20;99.90
49224;DHT22;35050;51.316;5.994;2023-04-25T04:01:45;7.10;99.90
49224;DHT22;35050;51.316;5.994;2023-04-25T04:04:11;7.10;99.90
49224;DHT22;35050;51.316;5.994;2023-04-25T04:06:36;7.20;99.90
49224;DHT22;35050;51.316;5.994;2023-04-25T04:09:03;7.10;99.90
49224;DHT22;35050;51.316;5.994;2023-04-25T04:11:28;7.20;99.90
49224;DHT22;35050;51.316;5.994;2023-04-25T04:13:54;7.10;99.90
49224;DHT22;35050;51.316;5.994;2023-04-25T04:16:20;7.10;99.90
49224;DHT22;35050;51.316;5.994;2023-04-25T04:18:46;7.20;99.90
49224;DHT22;35050;51.316;5.994;2023-04-25T04:21:12;7.20;99.90
49224;DHT22;35050;51.316;5.994;2023-04-25T04:23:37;7.10;99.90
49224;DHT22;35050;51.316;5.994;2023-04-25T04:26:03;7.20;99.90
49224;DHT22;35050;51.316;5.994;2023-04-25T04:28:29;7.20;99.90
49224;DHT22;35050;51.316;5.994;2023-04-25T04:30:55;7.10;99.90
49224;DHT22;35050;51.316;5.994;2023-04-25T04:33:21;7.30;99.90
49224;DHT22;35050;51.316;5.994;2023-04-25T04:35:49;7.30;99.90
49224;DHT22;35050;51.316;5.994;2023-04-25T04:38:17;7.30;99.90
49224;DHT22;35050;51.316;5.994;2023-04-25T04:40:43;7.40;99.90
49224;DHT22;35050;51.316;5.994;2023-04-25T04:43:09;7.40;99.90
49224;DHT22;35050;51.316;5.994;2023-04-25T04:45:36;7.30;99.90
49224;DHT22;35050;51.316;5.994;2023-04-25T04:48:05;7.40;99.90
49224;DHT22;35050;51.316;5.994;2023-04-25T04:50:31;7.50;99.90
49224;DHT22;35050;51.316;5.994;2023-04-25T04:52:58;7.40;99.90
49224;DHT22;35050;51.316;5.994;2023-04-25T04:55:24;7.50;99.90
49224;DHT22;35050;51.316;5.994;2023-04-25T04:57:49;7.50;99.90
49224;DHT22;35050;51.316;5.994;2023-04-25T05:00:15;7.50;99.90
49224;DHT22;35050;51.316;5.994;2023-04-25T05:02:41;7.40;99.90
49224;DHT22;35050;51.316;5.994;2023-04-25T05:05:07;7.40;99.90
49224;DHT22;35050;51.316;5.994;2023-04-25T05:07:33;7.60;99.90
49224;DHT22;35050;51.316;5.994;2023-04-25T05:09:59;7.50;99.90
49224;DHT22;35050;51.316;5.994;2023-04-25T05:12:25;7.60;99.90
49224;DHT22;35050;51.316;5.994;2023-04-25T05:14:50;7.60;99.90
49224;DHT22;35050;51.316;5.994;2023-04-25T05:17:16;7.60;99.90
49224;DHT22;35050;51.316;5.994;2023-04-25T05:19:42;7.60;99.90
49224;DHT22;35050;51.316;5.994;2023-04-25T05:22:07;7.50;99.90
49224;DHT22;35050;51.316;5.994;2023-04-25T05:24:33;7.60;99.90
49224;DHT22;35050;51.316;5.994;2023-04-25T05:26:59;7.70;99.90
49224;DHT22;35050;51.316;5.994;2023-04-25T05:29:24;7.70;99.90
49224;DHT22;35050;51.316;5.994;2023-04-25T05:31:50;7.70;99.90
49224;DHT22;35050;51.316;5.994;2023-04-25T05:34:15;7.70;99.90
49224;DHT22;35050;51.316;5.994;2023-04-25T05:36:43;7.80;99.90
49224;DHT22;35050;51.316;5.994;2023-04-25T05:39:08;7.80;99.90
49224;DHT22;35050;51.316;5.994;2023-04-25T05:41:34;7.80;99.90
49224;DHT22;35050;51.316;5.994;2023-04-25T05:44:00;7.80;99.90
49224;DHT22;35050;51.316;5.994;2023-04-25T05:46:25;7.80;99.90
49224;DHT22;35050;51.316;5.994;2023-04-25T05:48:51;7.90;99.90
49224;DHT22;35050;51.316;5.994;2023-04-25T05:51:17;7.80;99.90
49224;DHT22;35050;51.316;5.994;2023-04-25T05:53:43;7.80;99.90
49224;DHT22;35050;51.316;5.994;2023-04-25T05:56:09;7.90;99.90
49224;DHT22;35050;51.316;5.994;2023-04-25T05:58:35;7.90;99.90
49224;DHT22;35050;51.316;5.994;2023-04-25T06:01:01;7.90;99.90
49224;DHT22;35050;51.316;5.994;2023-04-25T06:03:28;8.00;99.90
49224;DHT22;35050;51.316;5.994;2023-04-25T06:05:53;8.00;99.90
49224;DHT22;35050;51.316;5.994;2023-04-25T06:08:19;8.20;99.90
49224;DHT22;35050;51.316;5.994;2023-04-25T06:10:45;8.10;99.90
49224;DHT22;35050;51.316;5.994;2023-04-25T06:13:11;8.20;99.90
49224;DHT22;35050;51.316;5.994;2023-04-25T06:15:36;8.00;99.90
49224;DHT22;35050;51.316;5.994;2023-04-25T06:18:02;8.10;99.90
49224;DHT22;35050;51.316;5.994;2023-04-25T06:20:28;8.20;99.90
49224;DHT22;35050;51.316;5.994;2023-04-25T06:22:54;8.30;99.90
49224;DHT22;35050;51.316;5.994;2023-04-25T06:25:20;8.40;99.90
49224;DHT22;35050;51.316;5.994;2023-04-25T06:27:45;8.40;99.90
49224;DHT22;35050;51.316;5.994;2023-04-25T06:30:11;8.60;99.90
49224;DHT22;35050;51.316;5.994;2023-04-25T06:32:38;8.60;99.90
49224;DHT22;35050;51.316;5.994;2023-04-25T06:35:04;8.70;99.90
49224;DHT22;35050;51.316;5.994;2023-04-25T06:37:30;8.80;99.90
49224;DHT22;35050;51.316;5.994;2023-04-25T06:39:56;8.80;99.90
49224;DHT22;35050;51.316;5.994;2023-04-25T06:42:22;8.80;99.90
49224;DHT22;35050;51.316;5.994;2023-04-25T06:44:47;9.10;99.90
49224;DHT22;35050;51.316;5.994;2023-04-25T06:47:14;9.00;99.90
49224;DHT22;35050;51.316;5.994;2023-04-25T06:49:40;8.90;99.90
49224;DHT22;35050;51.316;5.994;2023-04-25T06:52:07;9.10;99.90
49224;DHT22;35050;51.316;5.994;2023-04-25T06:54:32;9.30;99.90
49224;DHT22;35050;51.316;5.994;2023-04-25T06:56:58;9.20;99.90
49224;DHT22;35050;51.316;5.994;2023-04-25T06:59:26;9.20;99.90
49224;DHT22;35050;51.316;5.994;2023-04-25T07:01:51;9.40;99.90
49224;DHT22;35050;51.316;5.994;2023-04-25T07:04:17;9.30;99.90
49224;DHT22;35050;51.316;5.994;2023-04-25T07:06:43;9.40;99.90
49224;DHT22;35050;51.316;5.994;2023-04-25T07:09:09;9.40;99.90
49224;DHT22;35050;51.316;5.994;2023-04-25T07:11:38;9.50;99.90
49224;DHT22;35050;51.316;5.994;2023-04-25T07:14:03;9.40;99.90
49224;DHT22;35050;51.316;5.994;2023-04-25T07:16:29;9.40;99.90
49224;DHT22;35050;51.316;5.994;2023-04-25T07:18:55;9.40;99.90
49224;DHT22;35050;51.316;5.994;2023-04-25T07:21:21;9.50;99.90
49224;DHT22;35050;51.316;5.994;2023-04-25T07:23:46;9.90;99.90
49224;DHT22;35050;51.316;5.994;2023-04-25T07:26:13;9.80;99.90
49224;DHT22;35050;51.316;5.994;2023-04-25T07:28:38;9.50;99.90
49224;DHT22;35050;51.316;5.994;2023-04-25T07:31:04;9.50;99.90
49224;DHT22;35050;51.316;5.994;2023-04-25T07:33:30;9.80;99.90
49224;DHT22;35050;51.316;5.994;2023-04-25T07:35:56;10.10;99.90
49224;DHT22;35050;51.316;5.994;2023-04-25T07:38:22;10.10;99.90
49224;DHT22;35050;51.316;5.994;2023-04-25T07:40:48;9.60;99.90
49224;DHT22;35050;51.316;5.994;2023-04-25T07:43:14;9.70;99.90
49224;DHT22;35050;51.316;5.994;2023-04-25T07:45:43;9.60;99.90
49224;DHT22;35050;51.316;5.994;2023-04-25T07:48:08;9.40;99.90
49224;DHT22;35050;51.316;5.994;2023-04-25T07:50:34;9.50;99.90
49224;DHT22;35050;51.316;5.994;2023-04-25T07:53:00;10.10;99.90
49224;DHT22;35050;51.316;5.994;2023-04-25T07:55:25;10.50;99.90
49224;DHT22;35050;51.316;5.994;2023-04-25T07:57:51;10.80;99.90
49224;DHT22;35050;51.316;5.994;2023-04-25T08:00:17;10.70;99.90
49224;DHT22;35050;51.316;5.994;2023-04-25T08:02:43;10.50;99.90
49224;DHT22;35050;51.316;5.994;2023-04-25T08:05:09;10.60;99.90
49224;DHT22;35050;51.316;5.994;2023-04-25T08:07:37;10.50;99.90
49224;DHT22;35050;51.316;5.994;2023-04-25T08:10:05;10.20;99.90
49224;DHT22;35050;51.316;5.994;2023-04-25T08:12:31;10.30;99.90
49224;DHT22;35050;51.316;5.994;2023-04-25T08:14:57;10.20;99.90
49224;DHT22;35050;51.316;5.994;2023-04-25T08:17:23;10.50;99.90
49224;DHT22;35050;51.316;5.994;2023-04-25T08:19:49;10.40;99.90
49224;DHT22;35050;51.316;5.994;2023-04-25T08:22:14;10.30;99.90
49224;DHT22;35050;51.316;5.994;2023-04-25T08:24:41;10.10;99.90
49224;DHT22;35050;51.316;5.994;2023-04-25T08:27:07;10.90;99.90
49224;DHT22;35050;51.316;5.994;2023-04-25T08:29:33;11.10;99.90
49224;DHT22;35050;51.316;5.994;2023-04-25T08:31:59;10.70;99.90
49224;DHT22;35050;51.316;5.994;2023-04-25T08:34:25;11.00;99.90
49224;DHT22;35050;51.316;5.994;2023-04-25T08:36:51;11.60;99.90
49224;DHT22;35050;51.316;5.994;2023-04-25T08:39:17;12.00;99.90
49224;DHT22;35050;51.316;5.994;2023-04-25T08:41:43;12.00;99.90
49224;DHT22;35050;51.316;5.994;2023-04-25T08:44:13;11.40;99.90
49224;DHT22;35050;51.316;5.994;2023-04-25T08:46:40;11.20;99.90
49224;DHT22;35050;51.316;5.994;2023-04-25T08:49:07;11.20;99.90
49224;DHT22;35050;51.316;5.994;2023-04-25T08:51:38;11.40;99.90
49224;DHT22;35050;51.316;5.994;2023-04-25T08:54:11;11.70;99.90
49224;DHT22;35050;51.316;5.994;2023-04-25T08:56:41;11.60;99.90
49224;DHT22;35050;51.316;5.994;2023-04-25T08:59:10;11.80;99.90
49224;DHT22;35050;51.316;5.994;2023-04-25T09:01:35;12.30;99.90
49224;DHT22;35050;51.316;5.994;2023-04-25T09:04:01;12.90;99.90
49224;DHT22;35050;51.316;5.994;2023-04-25T09:06:29;12.80;99.90
49224;DHT22;35050;51.316;5.994;2023-04-25T09:09:01;12.70;99.90
49224;DHT22;35050;51.316;5.994;2023-04-25T09:11:27;13.00;99.90
49224;DHT22;35050;51.316;5.994;2023-04-25T09:14:13;13.30;99.90
49224;DHT22;35050;51.316;5.994;2023-04-25T09:16:59;13.10;99.90
49224;DHT22;35050;51.316;5.994;2023-04-25T09:19:28;13.00;99.90
49224;DHT22;35050;51.316;5.994;2023-04-25T09:21:54;12.90;99.90
49224;DHT22;35050;51.316;5.994;2023-04-25T09:24:40;13.00;98.60
49224;DHT22;35050;51.316;5.994;2023-04-25T09:27:08;12.10;98.70
49224;DHT22;35050;51.316;5.994;2023-04-25T09:29:37;12.20;98.50
49224;DHT22;35050;51.316;5.994;2023-04-25T09:32:23;12.10;99.70
49224;DHT22;35050;51.316;5.994;2023-04-25T09:34:53;11.90;99.90
49224;DHT22;35050;51.316;5.994;2023-04-25T09:37:21;12.00;99.90
49224;DHT22;35050;51.316;5.994;2023-04-25T09:39:52;11.70;99.20
49224;DHT22;35050;51.316;5.994;2023-04-25T09:42:22;11.90;99.90
49224;DHT22;35050;51.316;5.994;2023-04-25T09:44:49;12.10;99.70
49224;DHT22;35050;51.316;5.994;2023-04-25T09:47:16;12.20;99.90
49224;DHT22;35050;51.316;5.994;2023-04-25T09:49:43;12.20;99.90
49224;DHT22;35050;51.316;5.994;2023-04-25T09:52:17;12.70;99.80
49224;DHT22;35050;51.316;5.994;2023-04-25T09:54:44;13.10;99.50
49224;DHT22;35050;51.316;5.994;2023-04-25T09:57:17;12.90;98.10
49224;DHT22;35050;51.316;5.994;2023-04-25T09:59:45;12.40;96.10
49224;DHT22;35050;51.316;5.994;2023-04-25T10:02:13;12.50;97.60
49224;DHT22;35050;51.316;5.994;2023-04-25T10:04:40;12.80;99.90
49224;DHT22;35050;51.316;5.994;2023-04-25T10:07:06;12.70;99.70
49224;DHT22;35050;51.316;5.994;2023-04-25T10:09:33;12.70;99.10
49224;DHT22;35050;51.316;5.994;2023-04-25T10:11:59;12.50;98.70
49224;DHT22;35050;51.316;5.994;2023-04-25T10:14:26;12.80;99.90
49224;DHT22;35050;51.316;5.994;2023-04-25T10:16:53;13.00;99.10
49224;DHT22;35050;51.316;5.994;2023-04-25T10:19:22;12.90;97.50
49224;DHT22;35050;51.316;5.994;2023-04-25T10:22:18;13.70;98.30
49224;DHT22;35050;51.316;5.994;2023-04-25T10:24:46;14.70;97.60
49224;DHT22;35050;51.316;5.994;2023-04-25T10:27:12;15.00;96.80
49224;DHT22;35050;51.316;5.994;2023-04-25T10:29:38;14.70;97.40
49224;DHT22;35050;51.316;5.994;2023-04-25T10:32:08;14.20;95.50
49224;DHT22;35050;51.316;5.994;2023-04-25T10:34:43;13.80;94.30
49224;DHT22;35050;51.316;5.994;2023-04-25T10:37:12;13.80;96.10
49224;DHT22;35050;51.316;5.994;2023-04-25T10:39:40;13.70;96.10
49224;DHT22;35050;51.316;5.994;2023-04-25T10:42:09;13.10;94.50
49224;DHT22;35050;51.316;5.994;2023-04-25T10:44:37;12.70;96.00
49224;DHT22;35050;51.316;5.994;2023-04-25T10:47:03;12.30;97.80
49224;DHT22;35050;51.316;5.994;2023-04-25T10:49:35;12.10;98.60
49224;DHT22;35050;51.316;5.994;2023-04-25T10:54:43;11.20;99.90
49224;DHT22;35050;51.316;5.994;2023-04-25T10:57:32;11.10;99.90
49224;DHT22;35050;51.316;5.994;2023-04-25T11:02:48;10.40;99.90
49224;DHT22;35050;51.316;5.994;2023-04-25T11:05:31;10.90;99.90
49224;DHT22;35050;51.316;5.994;2023-04-25T11:07:58;11.30;99.90
49224;DHT22;35050;51.316;5.994;2023-04-25T11:10:31;12.40;99.90
49224;DHT22;35050;51.316;5.994;2023-04-25T11:12:57;12.70;99.90
49224;DHT22;35050;51.316;5.994;2023-04-25T11:15:24;12.60;99.90
49224;DHT22;35050;51.316;5.994;2023-04-25T11:17:54;12.80;99.90
49224;DHT22;35050;51.316;5.994;2023-04-25T11:20:20;13.00;99.90
49224;DHT22;35050;51.316;5.994;2023-04-25T11:22:47;14.20;99.90
49224;DHT22;35050;51.316;5.994;2023-04-25T11:25:14;14.80;99.90
49224;DHT22;35050;51.316;5.994;2023-04-25T11:27:54;15.30;98.90
49224;DHT22;35050;51.316;5.994;2023-04-25T11:30:20;15.30;99.50
49224;DHT22;35050;51.316;5.994;2023-04-25T11:32:47;15.50;98.80
49224;DHT22;35050;51.316;5.994;2023-04-25T11:35:13;15.70;96.30
49224;DHT22;35050;51.316;5.994;2023-04-25T11:37:40;15.90;94.90
49224;DHT22;35050;51.316;5.994;2023-04-25T11:40:06;16.20;95.30
49224;DHT22;35050;51.316;5.994;2023-04-25T11:42:33;16.80;93.50
49224;DHT22;35050;51.316;5.994;2023-04-25T11:44:59;17.10;90.60
49224;DHT22;35050;51.316;5.994;2023-04-25T11:47:32;17.20;89.60
49224;DHT22;35050;51.316;5.994;2023-04-25T11:49:59;17.30;88.20
49224;DHT22;35050;51.316;5.994;2023-04-25T11:52:44;16.90;86.90
49224;DHT22;35050;51.316;5.994;2023-04-25T11:57:40;17.20;84.20
49224;DHT22;35050;51.316;5.994;2023-04-25T12:00:19;17.60;81.60
49224;DHT22;35050;51.316;5.994;2023-04-25T12:02:56;17.60;85.30
49224;DHT22;35050;51.316;5.994;2023-04-25T12:05:28;17.70;81.80
49224;DHT22;35050;51.316;5.994;2023-04-25T12:07:55;17.70;80.10
49224;DHT22;35050;51.316;5.994;2023-04-25T12:10:20;16.80;81.90
49224;DHT22;35050;51.316;5.994;2023-04-25T12:12:48;15.90;80.90
49224;DHT22;35050;51.316;5.994;2023-04-25T12:15:26;14.00;92.10
49224;DHT22;35050;51.316;5.994;2023-04-25T12:17:53;13.30;95.50
49224;DHT22;35050;51.316;5.994;2023-04-25T12:20:23;12.40;98.70
49224;DHT22;35050;51.316;5.994;2023-04-25T12:22:50;12.10;99.90
49224;DHT22;35050;51.316;5.994;2023-04-25T12:25:38;11.90;99.90
49224;DHT22;35050;51.316;5.994;2023-04-25T12:31:06;11.60;99.90
49224;DHT22;35050;51.316;5.994;2023-04-25T12:33:38;11.30;99.90
49224;DHT22;35050;51.316;5.994;2023-04-25T12:36:05;11.70;99.90
49224;DHT22;35050;51.316;5.994;2023-04-25T12:38:41;12.10;99.90
49224;DHT22;35050;51.316;5.994;2023-04-25T12:41:07;12.30;99.90
49224;DHT22;35050;51.316;5.994;2023-04-25T12:43:34;12.50;99.90
49224;DHT22;35050;51.316;5.994;2023-04-25T12:46:00;12.70;99.90
49224;DHT22;35050;51.316;5.994;2023-04-25T12:48:25;12.90;99.90
49224;DHT22;35050;51.316;5.994;2023-04-25T12:50:52;12.80;99.90
49224;DHT22;35050;51.316;5.994;2023-04-25T12:53:19;13.10;99.90
49224;DHT22;35050;51.316;5.994;2023-04-25T12:55:45;13.20;99.90
49224;DHT22;35050;51.316;5.994;2023-04-25T12:58:15;13.30;99.90
49224;DHT22;35050;51.316;5.994;2023-04-25T13:00:41;13.20;99.90
49224;DHT22;35050;51.316;5.994;2023-04-25T13:03:09;13.30;99.90
49224;DHT22;35050;51.316;5.994;2023-04-25T13:05:36;13.30;99.90
49224;DHT22;35050;51.316;5.994;2023-04-25T13:08:02;13.80;99.90
49224;DHT22;35050;51.316;5.994;2023-04-25T13:10:28;14.10;99.30
49224;DHT22;35050;51.316;5.994;2023-04-25T13:12:53;14.60;99.50
49224;DHT22;35050;51.316;5.994;2023-04-25T13:15:19;15.00;96.50
49224;DHT22;35050;51.316;5.994;2023-04-25T13:17:45;15.90;97.40
49224;DHT22;35050;51.316;5.994;2023-04-25T13:20:11;16.10;96.50
49224;DHT22;35050;51.316;5.994;2023-04-25T13:22:39;16.70;95.40
49224;DHT22;35050;51.316;5.994;2023-04-25T13:25:06;17.00;94.70
49224;DHT22;35050;51.316;5.994;2023-04-25T13:27:33;16.90;94.20
49224;DHT22;35050;51.316;5.994;2023-04-25T13:30:03;16.50;92.10
49224;DHT22;35050;51.316;5.994;2023-04-25T13:32:33;17.10;94.80
49224;DHT22;35050;51.316;5.994;2023-04-25T13:35:02;17.30;95.10
49224;DHT22;35050;51.316;5.994;2023-04-25T13:37:28;16.20;91.30
49224;DHT22;35050;51.316;5.994;2023-04-25T13:39:55;15.80;91.00
49224;DHT22;35050;51.316;5.994;2023-04-25T13:42:22;16.20;89.60
49224;DHT22;35050;51.316;5.994;2023-04-25T13:44:48;15.90;86.40
49224;DHT22;35050;51.316;5.994;2023-04-25T13:47:14;15.00;85.50
49224;DHT22;35050;51.316;5.994;2023-04-25T13:49:39;15.40;87.70
49224;DHT22;35050;51.316;5.994;2023-04-25T13:52:05;16.10;85.50
49224;DHT22;35050;51.316;5.994;2023-04-25T13:54:31;16.10;86.10
49224;DHT22;35050;51.316;5.994;2023-04-25T13:56:57;15.70;83.70
49224;DHT22;35050;51.316;5.994;2023-04-25T13:59:24;15.40;84.50
49224;DHT22;35050;51.316;5.994;2023-04-25T14:01:51;14.80;82.70
49224;DHT22;35050;51.316;5.994;2023-04-25T14:04:17;15.30;81.70
49224;DHT22;35050;51.316;5.994;2023-04-25T14:06:42;15.70;80.20
49224;DHT22;35050;51.316;5.994;2023-04-25T14:09:08;15.90;81.80
49224;DHT22;35050;51.316;5.994;2023-04-25T14:11:36;16.60;80.60
49224;DHT22;35050;51.316;5.994;2023-04-25T14:14:02;16.60;79.40
49224;DHT22;35050;51.316;5.994;2023-04-25T14:16:29;16.60;82.90
49224;DHT22;35050;51.316;5.994;2023-04-25T14:18:55;15.60;84.90
49224;DHT22;35050;51.316;5.994;2023-04-25T14:21:21;15.90;86.90
49224;DHT22;35050;51.316;5.994;2023-04-25T14:23:47;16.10;87.70
49224;DHT22;35050;51.316;5.994;2023-04-25T14:26:13;16.40;87.30
49224;DHT22;35050;51.316;5.994;2023-04-25T14:28:38;16.40;83.60
49224;DHT22;35050;51.316;5.994;2023-04-25T14:31:04;16.50;84.30
49224;DHT22;35050;51.316;5.994;2023-04-25T14:33:30;16.10;81.00
49224;DHT22;35050;51.316;5.994;2023-04-25T14:35:56;16.30;81.40
49224;DHT22;35050;51.316;5.994;2023-04-25T14:38:22;17.00;82.70
49224;DHT22;35050;51.316;5.994;2023-04-25T14:40:49;17.00;81.80
49224;DHT22;35050;51.316;5.994;2023-04-25T14:43:15;16.70;79.00
49224;DHT22;35050;51.316;5.994;2023-04-25T14:45:41;16.90;81.80
49224;DHT22;35050;51.316;5.994;2023-04-25T14:48:06;17.00;80.60
49224;DHT22;35050;51.316;5.994;2023-04-25T14:50:32;16.20;79.70
49224;DHT22;35050;51.316;5.994;2023-04-25T14:52:58;16.20;79.30
49224;DHT22;35050;51.316;5.994;2023-04-25T14:55:26;15.80;81.20
49224;DHT22;35050;51.316;5.994;2023-04-25T14:57:55;15.10;79.20
49224;DHT22;35050;51.316;5.994;2023-04-25T15:00:22;15.80;78.80
49224;DHT22;35050;51.316;5.994;2023-04-25T15:02:48;16.00;76.00
49224;DHT22;35050;51.316;5.994;2023-04-25T15:05:14;15.60;79.10
49224;DHT22;35050;51.316;5.994;2023-04-25T15:07:40;16.00;80.70
49224;DHT22;35050;51.316;5.994;2023-04-25T15:10:09;15.30;82.30
49224;DHT22;35050;51.316;5.994;2023-04-25T15:12:41;14.90;82.90
49224;DHT22;35050;51.316;5.994;2023-04-25T15:15:08;14.50;82.60
49224;DHT22;35050;51.316;5.994;2023-04-25T15:17:43;14.40;84.60
49224;DHT22;35050;51.316;5.994;2023-04-25T15:20:10;14.90;84.50
49224;DHT22;35050;51.316;5.994;2023-04-25T15:22:38;14.60;83.70
49224;DHT22;35050;51.316;5.994;2023-04-25T15:25:04;14.30;85.30
49224;DHT22;35050;51.316;5.994;2023-04-25T15:27:30;14.30;86.80
49224;DHT22;35050;51.316;5.994;2023-04-25T15:29:56;14.80;87.50
49224;DHT22;35050;51.316;5.994;2023-04-25T15:32:21;15.00;85.10
49224;DHT22;35050;51.316;5.994;2023-04-25T15:34:48;15.30;85.20
49224;DHT22;35050;51.316;5.994;2023-04-25T15:37:15;15.50;84.70
49224;DHT22;35050;51.316;5.994;2023-04-25T15:39:40;15.70;84.50
49224;DHT22;35050;51.316;5.994;2023-04-25T15:42:07;16.00;83.70
49224;DHT22;35050;51.316;5.994;2023-04-25T15:44:32;16.00;88.10
49224;DHT22;35050;51.316;5.994;2023-04-25T15:46:58;15.20;81.20